Zurich, Kansas
Current Conditions -  °F | °C
As of 2:55 AM on Monday 20 Oct 2014 (Local Time) from KHYS Reporting Station
Clear Clear  
Wind Chill: 50°   Ceiling: Unl
Heat Index: 50°   Visibility: 10mi
Dew Point: 45°   Wind: 5mph
Humidity: 82%   Direction: 350°N
Pressure: 30.04"   Gusts: NA
Location:  39.2151°N, 99.302°W
Report Text: KHYS 200755Z AUTO 35004KT 10SM CLR 10/07 A3004 RMK AO1
Loading
Personal Weather Stations






























Interactive Weather Map
Tropical Storm Tracking
New forecast layout! Learn more

10-Day Weather Forecast

Advertisements
Track Severe Weather on mobile